sensor_id;sensor_type;location;lat;lon;timestamp;P1;durP1;ratioP1;P2;durP2;ratioP2
67164;SDS011;54093;50.014;19.984;2022-12-15T00:05:38;20.50;;;11.82;;
67164;SDS011;54093;50.014;19.984;2022-12-15T00:15:18;21.90;;;10.93;;
67164;SDS011;54093;50.014;19.984;2022-12-15T00:24:57;21.88;;;11.95;;
67164;SDS011;54093;50.014;19.984;2022-12-15T00:34:37;57.83;;;22.73;;
67164;SDS011;54093;50.014;19.984;2022-12-15T00:44:16;42.00;;;20.17;;
67164;SDS011;54093;50.014;19.984;2022-12-15T00:53:37;51.15;;;23.55;;
67164;SDS011;54093;50.014;19.984;2022-12-15T01:03:19;35.40;;;18.75;;
67164;SDS011;54093;50.014;19.984;2022-12-15T01:13:00;43.53;;;15.50;;
67164;SDS011;54093;50.014;19.984;2022-12-15T01:22:40;40.58;;;17.35;;
67164;SDS011;54093;50.014;19.984;2022-12-15T01:32:01;40.28;;;18.55;;
67164;SDS011;54093;50.014;19.984;2022-12-15T01:41:22;53.88;;;23.27;;
67164;SDS011;54093;50.014;19.984;2022-12-15T01:51:00;56.20;;;25.52;;
67164;SDS011;54093;50.014;19.984;2022-12-15T02:00:26;69.07;;;26.58;;
67164;SDS011;54093;50.014;19.984;2022-12-15T02:09:48;77.90;;;28.10;;
67164;SDS011;54093;50.014;19.984;2022-12-15T02:38:12;53.97;;;23.27;;
67164;SDS011;54093;50.014;19.984;2022-12-15T02:47:37;62.88;;;25.80;;
67164;SDS011;54093;50.014;19.984;2022-12-15T02:57:25;50.72;;;21.85;;
67164;SDS011;54093;50.014;19.984;2022-12-15T03:07:04;66.22;;;26.08;;
67164;SDS011;54093;50.014;19.984;2022-12-15T03:16:27;42.83;;;21.38;;
67164;SDS011;54093;50.014;19.984;2022-12-15T03:25:48;52.80;;;21.20;;
67164;SDS011;54093;50.014;19.984;2022-12-15T03:35:09;55.90;;;24.95;;
67164;SDS011;54093;50.014;19.984;2022-12-15T03:44:32;34.92;;;16.85;;
67164;SDS011;54093;50.014;19.984;2022-12-15T03:53:53;28.40;;;15.90;;
67164;SDS011;54093;50.014;19.984;2022-12-15T04:03:13;29.45;;;15.07;;
67164;SDS011;54093;50.014;19.984;2022-12-15T04:12:35;35.42;;;15.40;;
67164;SDS011;54093;50.014;19.984;2022-12-15T04:21:59;36.10;;;15.95;;
67164;SDS011;54093;50.014;19.984;2022-12-15T04:31:24;42.78;;;21.13;;
67164;SDS011;54093;50.014;19.984;2022-12-15T04:41:13;25.10;;;13.52;;
67164;SDS011;54093;50.014;19.984;2022-12-15T04:50:54;33.13;;;14.65;;
67164;SDS011;54093;50.014;19.984;2022-12-15T05:00:34;27.05;;;15.88;;
67164;SDS011;54093;50.014;19.984;2022-12-15T05:10:14;31.45;;;14.13;;
67164;SDS011;54093;50.014;19.984;2022-12-15T05:19:53;23.20;;;12.70;;
67164;SDS011;54093;50.014;19.984;2022-12-15T05:29:33;38.83;;;18.20;;
67164;SDS011;54093;50.014;19.984;2022-12-15T05:39:12;41.47;;;18.27;;
67164;SDS011;54093;50.014;19.984;2022-12-15T05:48:33;47.95;;;22.58;;
67164;SDS011;54093;50.014;19.984;2022-12-15T05:57:54;44.53;;;21.80;;
67164;SDS011;54093;50.014;19.984;2022-12-15T06:07:15;53.85;;;23.58;;
67164;SDS011;54093;50.014;19.984;2022-12-15T06:16:36;54.33;;;21.63;;
67164;SDS011;54093;50.014;19.984;2022-12-15T06:25:57;47.47;;;20.63;;
67164;SDS011;54093;50.014;19.984;2022-12-15T06:35:19;52.47;;;24.45;;
67164;SDS011;54093;50.014;19.984;2022-12-15T06:44:40;56.60;;;24.40;;
67164;SDS011;54093;50.014;19.984;2022-12-15T06:54:01;60.38;;;26.63;;
67164;SDS011;54093;50.014;19.984;2022-12-15T07:03:22;41.88;;;21.13;;
67164;SDS011;54093;50.014;19.984;2022-12-15T07:12:44;41.97;;;22.30;;
67164;SDS011;54093;50.014;19.984;2022-12-15T07:22:04;65.07;;;27.55;;
67164;SDS011;54093;50.014;19.984;2022-12-15T07:31:25;51.97;;;22.67;;
67164;SDS011;54093;50.014;19.984;2022-12-15T07:40:46;46.72;;;20.27;;
67164;SDS011;54093;50.014;19.984;2022-12-15T07:50:08;54.92;;;22.63;;
67164;SDS011;54093;50.014;19.984;2022-12-15T07:59:29;53.85;;;22.15;;
67164;SDS011;54093;50.014;19.984;2022-12-15T08:08:50;52.60;;;23.90;;
67164;SDS011;54093;50.014;19.984;2022-12-15T08:18:11;46.20;;;22.05;;
67164;SDS011;54093;50.014;19.984;2022-12-15T08:27:32;40.13;;;19.02;;
67164;SDS011;54093;50.014;19.984;2022-12-15T08:36:52;47.42;;;20.48;;
67164;SDS011;54093;50.014;19.984;2022-12-15T08:46:18;51.90;;;22.85;;
67164;SDS011;54093;50.014;19.984;2022-12-15T08:55:41;54.60;;;24.10;;
67164;SDS011;54093;50.014;19.984;2022-12-15T09:05:02;44.40;;;16.70;;
67164;SDS011;54093;50.014;19.984;2022-12-15T09:14:25;35.85;;;17.85;;
67164;SDS011;54093;50.014;19.984;2022-12-15T09:23:47;42.22;;;17.98;;
67164;SDS011;54093;50.014;19.984;2022-12-15T09:33:11;46.17;;;22.48;;
67164;SDS011;54093;50.014;19.984;2022-12-15T09:42:31;53.33;;;22.70;;
67164;SDS011;54093;50.014;19.984;2022-12-15T09:51:55;32.40;;;16.98;;
67164;SDS011;54093;50.014;19.984;2022-12-15T10:01:37;49.03;;;21.05;;
67164;SDS011;54093;50.014;19.984;2022-12-15T10:21:00;48.33;;;22.98;;
67164;SDS011;54093;50.014;19.984;2022-12-15T10:30:22;31.42;;;16.38;;
67164;SDS011;54093;50.014;19.984;2022-12-15T10:39:43;41.20;;;18.33;;
67164;SDS011;54093;50.014;19.984;2022-12-15T10:58:27;31.25;;;16.73;;
67164;SDS011;54093;50.014;19.984;2022-12-15T11:07:51;46.05;;;19.40;;
67164;SDS011;54093;50.014;19.984;2022-12-15T11:17:18;32.13;;;15.85;;
67164;SDS011;54093;50.014;19.984;2022-12-15T11:55:55;47.25;;;18.33;;
67164;SDS011;54093;50.014;19.984;2022-12-15T12:24:37;43.83;;;18.48;;
67164;SDS011;54093;50.014;19.984;2022-12-15T12:34:05;46.53;;;19.80;;
67164;SDS011;54093;50.014;19.984;2022-12-15T12:43:43;62.42;;;23.42;;
67164;SDS011;54093;50.014;19.984;2022-12-15T12:53:22;40.38;;;17.35;;
67164;SDS011;54093;50.014;19.984;2022-12-15T13:02:49;42.55;;;20.80;;
67164;SDS011;54093;50.014;19.984;2022-12-15T13:12:50;52.40;;;21.35;;
67164;SDS011;54093;50.014;19.984;2022-12-15T13:31:51;56.08;;;21.38;;
67164;SDS011;54093;50.014;19.984;2022-12-15T13:41:22;46.58;;;19.73;;
67164;SDS011;54093;50.014;19.984;2022-12-15T13:50:55;43.00;;;20.30;;
67164;SDS011;54093;50.014;19.984;2022-12-15T14:00:47;42.67;;;18.23;;
67164;SDS011;54093;50.014;19.984;2022-12-15T14:19:48;53.78;;;20.50;;
67164;SDS011;54093;50.014;19.984;2022-12-15T14:29:10;48.00;;;19.98;;
67164;SDS011;54093;50.014;19.984;2022-12-15T14:38:40;37.30;;;17.95;;
67164;SDS011;54093;50.014;19.984;2022-12-15T14:48:07;48.85;;;22.00;;
67164;SDS011;54093;50.014;19.984;2022-12-15T15:07:07;60.47;;;20.92;;
67164;SDS011;54093;50.014;19.984;2022-12-15T15:16:36;66.85;;;26.58;;
67164;SDS011;54093;50.014;19.984;2022-12-15T15:35:28;66.72;;;27.15;;
67164;SDS011;54093;50.014;19.984;2022-12-15T15:44:50;52.70;;;20.58;;
67164;SDS011;54093;50.014;19.984;2022-12-15T15:54:12;43.58;;;18.15;;
67164;SDS011;54093;50.014;19.984;2022-12-15T16:03:35;43.25;;;16.90;;
67164;SDS011;54093;50.014;19.984;2022-12-15T16:12:57;33.95;;;15.10;;
67164;SDS011;54093;50.014;19.984;2022-12-15T16:22:23;43.63;;;20.85;;
67164;SDS011;54093;50.014;19.984;2022-12-15T16:31:44;41.28;;;17.85;;
67164;SDS011;54093;50.014;19.984;2022-12-15T16:41:06;39.22;;;17.88;;
67164;SDS011;54093;50.014;19.984;2022-12-15T16:50:28;44.22;;;19.15;;
67164;SDS011;54093;50.014;19.984;2022-12-15T16:59:53;53.43;;;21.67;;
67164;SDS011;54093;50.014;19.984;2022-12-15T17:09:17;51.17;;;20.75;;
67164;SDS011;54093;50.014;19.984;2022-12-15T17:18:41;60.55;;;22.50;;
67164;SDS011;54093;50.014;19.984;2022-12-15T17:28:02;50.40;;;20.98;;
67164;SDS011;54093;50.014;19.984;2022-12-15T17:37:25;52.80;;;21.48;;
67164;SDS011;54093;50.014;19.984;2022-12-15T17:46:45;48.75;;;20.40;;
67164;SDS011;54093;50.014;19.984;2022-12-15T17:56:08;56.08;;;24.55;;
67164;SDS011;54093;50.014;19.984;2022-12-15T18:05:30;49.13;;;23.02;;
67164;SDS011;54093;50.014;19.984;2022-12-15T18:14:52;47.92;;;21.42;;
67164;SDS011;54093;50.014;19.984;2022-12-15T18:24:15;48.15;;;24.00;;
67164;SDS011;54093;50.014;19.984;2022-12-15T18:33:38;57.67;;;26.58;;
67164;SDS011;54093;50.014;19.984;2022-12-15T18:42:59;65.55;;;29.75;;
67164;SDS011;54093;50.014;19.984;2022-12-15T18:52:21;62.30;;;28.08;;
67164;SDS011;54093;50.014;19.984;2022-12-15T19:01:44;68.50;;;26.60;;
67164;SDS011;54093;50.014;19.984;2022-12-15T19:20:30;42.45;;;21.25;;
67164;SDS011;54093;50.014;19.984;2022-12-15T19:30:13;64.28;;;29.27;;
67164;SDS011;54093;50.014;19.984;2022-12-15T19:39:35;54.58;;;26.52;;
67164;SDS011;54093;50.014;19.984;2022-12-15T19:48:57;63.20;;;24.40;;
67164;SDS011;54093;50.014;19.984;2022-12-15T19:58:20;50.58;;;22.00;;
67164;SDS011;54093;50.014;19.984;2022-12-15T20:07:43;35.28;;;16.90;;
67164;SDS011;54093;50.014;19.984;2022-12-15T20:17:06;39.58;;;18.23;;
67164;SDS011;54093;50.014;19.984;2022-12-15T20:26:27;41.35;;;18.17;;
67164;SDS011;54093;50.014;19.984;2022-12-15T20:35:49;35.00;;;17.73;;
67164;SDS011;54093;50.014;19.984;2022-12-15T20:45:14;46.15;;;22.63;;
67164;SDS011;54093;50.014;19.984;2022-12-15T20:54:36;43.47;;;19.73;;
67164;SDS011;54093;50.014;19.984;2022-12-15T21:03:58;34.08;;;18.63;;
67164;SDS011;54093;50.014;19.984;2022-12-15T21:13:24;37.80;;;15.98;;
67164;SDS011;54093;50.014;19.984;2022-12-15T21:22:47;46.00;;;19.30;;
67164;SDS011;54093;50.014;19.984;2022-12-15T21:32:08;46.03;;;18.17;;
67164;SDS011;54093;50.014;19.984;2022-12-15T21:41:29;23.35;;;13.30;;
67164;SDS011;54093;50.014;19.984;2022-12-15T21:50:50;37.33;;;18.23;;
67164;SDS011;54093;50.014;19.984;2022-12-15T22:00:12;41.88;;;19.10;;
67164;SDS011;54093;50.014;19.984;2022-12-15T22:09:34;39.20;;;17.15;;
67164;SDS011;54093;50.014;19.984;2022-12-15T22:18:56;38.92;;;16.63;;
67164;SDS011;54093;50.014;19.984;2022-12-15T22:28:22;37.13;;;16.33;;
67164;SDS011;54093;50.014;19.984;2022-12-15T22:37:44;40.97;;;16.38;;
67164;SDS011;54093;50.014;19.984;2022-12-15T22:47:05;34.95;;;16.15;;
67164;SDS011;54093;50.014;19.984;2022-12-15T22:56:33;37.25;;;15.23;;
67164;SDS011;54093;50.014;19.984;2022-12-15T23:05:59;48.17;;;17.65;;
67164;SDS011;54093;50.014;19.984;2022-12-15T23:15:21;32.35;;;16.20;;
67164;SDS011;54093;50.014;19.984;2022-12-15T23:25:02;30.67;;;13.88;;
67164;SDS011;54093;50.014;19.984;2022-12-15T23:34:24;26.50;;;13.93;;
67164;SDS011;54093;50.014;19.984;2022-12-15T23:43:45;32.67;;;15.25;;
67164;SDS011;54093;50.014;19.984;2022-12-15T23:53:05;31.00;;;15.63;;
